createdAt,value
2017-11-15T00:01:55.739Z,101699
2017-11-15T00:04:24.491Z,101701
2017-11-15T00:06:52.635Z,101702
2017-11-15T00:09:20.762Z,101701
2017-11-15T00:11:48.951Z,101704
2017-11-15T00:14:17.081Z,101713
2017-11-15T00:16:45.223Z,101701
2017-11-15T00:19:13.778Z,101699
2017-11-15T00:21:42.668Z,101707
2017-11-15T00:24:11.535Z,101697
2017-11-15T00:26:39.646Z,101698
2017-11-15T00:29:07.758Z,101708
2017-11-15T00:31:35.870Z,101710
2017-11-15T00:34:04.074Z,101703
2017-11-15T00:36:32.497Z,101708
2017-11-15T00:39:00.670Z,101724
2017-11-15T00:41:30.275Z,101714
2017-11-15T00:43:58.787Z,101711
2017-11-15T00:46:27.644Z,101703
2017-11-15T00:48:55.767Z,101706
2017-11-15T00:51:23.891Z,101699
2017-11-15T00:53:53.142Z,101710
2017-11-15T00:56:21.270Z,101706
2017-11-15T00:58:49.391Z,101701
2017-11-15T01:01:17.519Z,101707
2017-11-15T01:03:45.668Z,101712
2017-11-15T01:06:14.338Z,101713
2017-11-15T01:08:42.543Z,101713
2017-11-15T01:11:10.680Z,101718
2017-11-15T01:13:38.796Z,101706
2017-11-15T01:16:06.924Z,101706
2017-11-15T01:18:35.059Z,101710
2017-11-15T01:21:03.185Z,101710
2017-11-15T01:23:31.297Z,101707
2017-11-15T01:25:59.911Z,101716
2017-11-15T01:28:28.780Z,101707
2017-11-15T01:30:56.923Z,101705
2017-11-15T01:33:25.063Z,101704
2017-11-15T01:35:53.191Z,101702
2017-11-15T01:38:21.654Z,101708
2017-11-15T01:40:49.829Z,101704
2017-11-15T01:43:18.454Z,101713
2017-11-15T01:45:47.326Z,101717
2017-11-15T01:48:15.519Z,101710
2017-11-15T01:50:43.667Z,101709
2017-11-15T01:53:11.799Z,101708
2017-11-15T01:55:41.318Z,101697
2017-11-15T01:58:09.513Z,101697
2017-11-15T02:00:51.338Z,101709
2017-11-15T02:03:20.260Z,101700
2017-11-15T02:05:48.426Z,101692
2017-11-15T02:08:16.582Z,101699
2017-11-15T02:10:45.778Z,101687
2017-11-15T02:13:13.943Z,101695
2017-11-15T02:15:42.077Z,101692
2017-11-15T02:18:10.227Z,101693
2017-11-15T02:20:38.428Z,101695
2017-11-15T02:23:06.635Z,101703
2017-11-15T02:25:34.826Z,101691
2017-11-15T02:28:03.046Z,101680
2017-11-15T02:30:31.609Z,101687
2017-11-15T02:32:59.869Z,101682
2017-11-15T02:35:28.076Z,101677
2017-11-15T02:37:56.262Z,101682
2017-11-15T02:40:24.743Z,101675
2017-11-15T02:42:52.986Z,101672
2017-11-15T02:45:21.202Z,101676
2017-11-15T02:47:49.412Z,101669
2017-11-15T02:50:18.815Z,101666
2017-11-15T02:52:46.964Z,101661
2017-11-15T02:55:15.207Z,101660
2017-11-15T02:57:43.406Z,101671
2017-11-15T03:00:11.584Z,101660
2017-11-15T03:02:39.706Z,101660
2017-11-15T03:05:07.883Z,101665
2017-11-15T03:07:36.020Z,101662
2017-11-15T03:10:04.213Z,101481
2017-11-15T03:12:32.742Z,101663
2017-11-15T03:15:00.963Z,101661
2017-11-15T03:17:29.118Z,101660
2017-11-15T03:19:57.318Z,101654
2017-11-15T03:22:25.482Z,101647
2017-11-15T03:24:53.639Z,101632
2017-11-15T03:27:21.767Z,101652
2017-11-15T03:29:49.931Z,101658
2017-11-15T03:32:18.075Z,101656
2017-11-15T03:34:46.959Z,101660
2017-11-15T03:37:15.071Z,101654
2017-11-15T03:39:43.514Z,101659
2017-11-15T03:42:12.235Z,101655
2017-11-15T03:44:40.386Z,101657
2017-11-15T03:47:08.515Z,101652
2017-11-15T03:49:36.699Z,101659
2017-11-15T03:52:04.810Z,101645
2017-11-15T03:54:33.659Z,101646
2017-11-15T03:57:01.882Z,101648
2017-11-15T03:59:29.987Z,101647
2017-11-15T04:01:58.101Z,101654
2017-11-15T04:04:26.587Z,101663
2017-11-15T04:06:54.716Z,101661
2017-11-15T04:09:22.858Z,101652
2017-11-15T04:11:50.988Z,101652
2017-11-15T04:14:19.103Z,101657
2017-11-15T04:16:47.979Z,101649
2017-11-15T04:19:16.098Z,101650
2017-11-15T04:21:44.202Z,101649
2017-11-15T04:24:12.322Z,101653
2017-11-15T04:26:40.518Z,101652
2017-11-15T04:29:08.952Z,101648
2017-11-15T04:31:37.187Z,101645
2017-11-15T04:34:05.435Z,101648
2017-11-15T04:36:33.555Z,101644
2017-11-15T04:39:01.744Z,101654
2017-11-15T04:41:29.898Z,101643
2017-11-15T04:43:58.659Z,101648
2017-11-15T04:46:26.831Z,101646
2017-11-15T04:48:55.704Z,101649
2017-11-15T04:51:23.830Z,101635
2017-11-15T04:53:51.959Z,101629
2017-11-15T04:56:20.087Z,101649
2017-11-15T04:58:48.215Z,101632
2017-11-15T05:01:16.332Z,101639
2017-11-15T05:03:44.467Z,101647
2017-11-15T05:06:12.906Z,101658
2017-11-15T05:08:41.764Z,101647
2017-11-15T05:11:09.887Z,101654
2017-11-15T05:13:38.019Z,101668
2017-11-15T05:16:07.082Z,101662
2017-11-15T05:18:35.230Z,101659
2017-11-15T05:21:03.528Z,101663
2017-11-15T05:23:31.738Z,101663
2017-11-15T05:25:59.863Z,101661
2017-11-15T05:28:28.032Z,101668
2017-11-15T05:30:56.502Z,101665
2017-11-15T05:33:25.396Z,101663
2017-11-15T05:35:54.249Z,101667
2017-11-15T05:38:22.346Z,101649
2017-11-15T05:40:51.194Z,101660
2017-11-15T05:43:19.298Z,101663
2017-11-15T05:45:47.949Z,101670
2017-11-15T05:48:16.226Z,101672
2017-11-15T05:50:44.346Z,101667
2017-11-15T05:53:13.271Z,101670
2017-11-15T05:55:41.711Z,101675
2017-11-15T05:58:09.822Z,101656
2017-11-15T06:00:37.984Z,101664
2017-11-15T06:03:06.097Z,101668
2017-11-15T06:05:34.219Z,101661
2017-11-15T06:08:03.092Z,101677
2017-11-15T06:10:31.325Z,101674
2017-11-15T06:12:59.761Z,101670
2017-11-15T06:15:27.850Z,101663
2017-11-15T06:17:55.994Z,101669
2017-11-15T06:20:24.114Z,101666
2017-11-15T06:22:52.360Z,101670
2017-11-15T06:25:20.438Z,101672
2017-11-15T06:27:49.355Z,101692
2017-11-15T06:30:18.662Z,101682
2017-11-15T06:32:46.812Z,101681
2017-11-15T06:35:14.895Z,101677
2017-11-15T06:37:43.028Z,101691
2017-11-15T06:40:11.149Z,101686
2017-11-15T06:42:39.334Z,101690
2017-11-15T06:45:08.194Z,101690
2017-11-15T06:47:36.379Z,101694
2017-11-15T06:50:04.818Z,101695
2017-11-15T06:52:32.949Z,101666
2017-11-15T06:55:01.090Z,101691
2017-11-15T06:57:29.516Z,101696
2017-11-15T06:59:57.995Z,101694
2017-11-15T07:02:26.125Z,101696
2017-11-15T07:04:54.232Z,101709
2017-11-15T07:07:22.396Z,101703
2017-11-15T07:09:50.494Z,101710
2017-11-15T07:12:18.622Z,101705
2017-11-15T07:14:46.776Z,101711
2017-11-15T07:17:16.230Z,101702
2017-11-15T07:19:44.379Z,101704
2017-11-15T07:22:12.490Z,101722
2017-11-15T07:24:40.592Z,101720
2017-11-15T07:27:08.710Z,101718
2017-11-15T07:29:36.831Z,101719
2017-11-15T07:32:04.963Z,101722
2017-11-15T07:34:33.084Z,101714
2017-11-15T07:37:02.293Z,101725
2017-11-15T07:39:31.206Z,101721
2017-11-15T07:41:59.337Z,101722
2017-11-15T07:44:28.959Z,101735
2017-11-15T07:46:57.795Z,101723
2017-11-15T07:49:25.991Z,101734
2017-11-15T07:51:54.103Z,101737
2017-11-15T07:54:22.234Z,101733
2017-11-15T07:56:50.347Z,101740
2017-11-15T07:59:19.202Z,101735
2017-11-15T08:01:47.723Z,101744
2017-11-15T08:04:16.767Z,101743
2017-11-15T08:06:44.894Z,101744
2017-11-15T08:09:13.731Z,101741
2017-11-15T08:11:41.839Z,101749
2017-11-15T08:14:09.959Z,101754
2017-11-15T08:16:38.067Z,101762
2017-11-15T08:19:06.182Z,101761
2017-11-15T08:21:34.410Z,101754
2017-11-15T08:24:02.542Z,101756
2017-11-15T08:26:31.071Z,101758
2017-11-15T08:28:59.492Z,101754
2017-11-15T08:31:27.604Z,101759
2017-11-15T08:33:55.707Z,101761
2017-11-15T08:36:23.824Z,101754
2017-11-15T08:38:51.943Z,101759
2017-11-15T08:41:20.099Z,101768
2017-11-15T08:43:48.221Z,101774
2017-11-15T08:46:17.587Z,101767
2017-11-15T08:48:45.754Z,101783
2017-11-15T08:51:13.990Z,101772
2017-11-15T08:53:42.170Z,101785
2017-11-15T08:56:10.292Z,101784
2017-11-15T08:58:38.438Z,101775
2017-11-15T09:01:06.616Z,101780
2017-11-15T09:03:34.762Z,101787
2017-11-15T09:06:03.346Z,101790
2017-11-15T09:08:31.461Z,101814
2017-11-15T09:10:59.567Z,101784
2017-11-15T09:13:28.419Z,101785
2017-11-15T09:15:56.515Z,101783
2017-11-15T09:18:26.128Z,101786
2017-11-15T09:20:55.007Z,101797
2017-11-15T09:23:23.115Z,101791
2017-11-15T09:25:51.982Z,101798
2017-11-15T09:28:20.095Z,101796
2017-11-15T09:30:50.173Z,101790
2017-11-15T09:33:18.296Z,101796
2017-11-15T09:35:46.399Z,101801
2017-11-15T09:38:14.519Z,101803
2017-11-15T09:40:42.635Z,101805
2017-11-15T09:43:10.766Z,101797
2017-11-15T09:45:39.191Z,101800
2017-11-15T09:48:07.304Z,101827
2017-11-15T09:50:36.219Z,101811
2017-11-15T09:53:04.925Z,101807
2017-11-15T09:55:33.054Z,101808
2017-11-15T09:58:01.157Z,101815
2017-11-15T10:00:29.590Z,101825
2017-11-15T10:02:57.727Z,101823
2017-11-15T10:05:25.884Z,101833
2017-11-15T10:07:54.007Z,101831
2017-11-15T10:10:23.223Z,101829
2017-11-15T10:12:52.099Z,101823
2017-11-15T10:15:20.236Z,101830
2017-11-15T10:17:48.367Z,101836
2017-11-15T10:20:16.466Z,101830
2017-11-15T10:22:44.795Z,101840
2017-11-15T10:25:12.911Z,101829
2017-11-15T10:27:41.046Z,101834
2017-11-15T10:30:09.200Z,101834
2017-11-15T10:32:37.304Z,101836
2017-11-15T10:35:06.150Z,101847
2017-11-15T10:37:34.663Z,101829
2017-11-15T10:40:02.877Z,101835
2017-11-15T10:42:31.004Z,101827
2017-11-15T10:44:59.123Z,101835
2017-11-15T10:47:27.233Z,101840
2017-11-15T10:49:55.322Z,101839
2017-11-15T10:52:23.415Z,101840
2017-11-15T10:54:52.244Z,101836
2017-11-15T10:57:20.363Z,101829
2017-11-15T10:59:48.515Z,101831
2017-11-15T11:02:16.663Z,101835
2017-11-15T11:04:44.819Z,101832
2017-11-15T11:07:12.958Z,101827
2017-11-15T11:09:41.199Z,101832
2017-11-15T11:12:09.345Z,101835
2017-11-15T11:14:37.532Z,101838
2017-11-15T11:17:05.720Z,101817
2017-11-15T11:19:33.867Z,101826
2017-11-15T11:22:02.547Z,101821
2017-11-15T11:24:33.561Z,101823
2017-11-15T11:27:01.711Z,101834
2017-11-15T11:29:29.878Z,101836
2017-11-15T11:31:58.035Z,101820
2017-11-15T11:34:26.151Z,101822
2017-11-15T11:36:54.284Z,101834
2017-11-15T11:39:22.394Z,101836
2017-11-15T11:41:50.502Z,101831
2017-11-15T11:44:19.358Z,101824
2017-11-15T11:46:47.834Z,101831
2017-11-15T11:49:15.946Z,101823
2017-11-15T11:51:44.820Z,101824
2017-11-15T11:54:13.869Z,101831
2017-11-15T11:56:42.403Z,101823
2017-11-15T11:59:11.300Z,101824
2017-11-15T12:01:40.167Z,101826
2017-11-15T12:04:08.339Z,101817
2017-11-15T12:06:37.238Z,101836
2017-11-15T12:09:07.215Z,101836
2017-11-15T12:11:35.343Z,101831
2017-11-15T12:14:04.970Z,101840
2017-11-15T12:16:33.091Z,101835
2017-11-15T12:19:01.346Z,101837
2017-11-15T12:21:29.623Z,101823
2017-11-15T12:23:57.768Z,101828
2017-11-15T12:26:25.887Z,101823
2017-11-15T12:28:54.060Z,101824
2017-11-15T12:31:22.241Z,101820
2017-11-15T12:33:50.843Z,101816
2017-11-15T12:36:18.984Z,101825
2017-11-15T12:38:47.110Z,101828
2017-11-15T12:41:15.247Z,101829
2017-11-15T12:43:43.411Z,101836
2017-11-15T12:46:11.583Z,101837
2017-11-15T12:48:39.788Z,101841
2017-11-15T12:51:07.943Z,101836
2017-11-15T12:53:36.211Z,101841
2017-11-15T12:56:04.611Z,101843
2017-11-15T12:58:33.399Z,101837
2017-11-15T13:01:01.917Z,101840
2017-11-15T13:03:30.027Z,101853
2017-11-15T13:05:58.135Z,101849
2017-11-15T13:08:26.275Z,101846
2017-11-15T13:10:54.440Z,101852
2017-11-15T13:13:22.566Z,101854
2017-11-15T13:15:51.515Z,101843
2017-11-15T13:18:19.679Z,101839
2017-11-15T13:20:47.953Z,101848
2017-11-15T13:23:16.134Z,101851
2017-11-15T13:25:44.778Z,101857
2017-11-15T13:28:13.679Z,101855
2017-11-15T13:30:41.848Z,101851
2017-11-15T13:33:09.987Z,101854
2017-11-15T13:35:38.171Z,101865
2017-11-15T13:38:06.299Z,101864
2017-11-15T13:40:34.447Z,101863
2017-11-15T13:43:02.660Z,101874
2017-11-15T13:45:30.810Z,101864
2017-11-15T13:47:58.998Z,101872
2017-11-15T13:50:27.571Z,101870
2017-11-15T13:52:55.715Z,101862
2017-11-15T13:55:24.322Z,101870
2017-11-15T13:57:52.447Z,101875
2017-11-15T14:00:21.223Z,101881
2017-11-15T14:02:49.363Z,101880
2017-11-15T14:05:17.475Z,101873
2017-11-15T14:07:45.616Z,101873
2017-11-15T14:10:13.756Z,101870
2017-11-15T14:12:42.619Z,101872
2017-11-15T14:15:11.123Z,101871
2017-11-15T14:17:39.986Z,101871
2017-11-15T14:20:08.131Z,101872
2017-11-15T14:22:36.507Z,101878
2017-11-15T14:25:04.686Z,101881
2017-11-15T14:27:32.816Z,101875
2017-11-15T14:30:00.945Z,101879
2017-11-15T14:32:29.071Z,101882
2017-11-15T14:34:57.208Z,101880
2017-11-15T14:37:26.831Z,101886
2017-11-15T14:39:56.123Z,101883
2017-11-15T14:42:24.324Z,101880
2017-11-15T14:44:52.439Z,101890
2017-11-15T14:47:20.551Z,101881
2017-11-15T14:49:49.399Z,101895
2017-11-15T14:52:17.520Z,101884
2017-11-15T14:54:46.368Z,101899
2017-11-15T14:57:14.514Z,101893
2017-11-15T14:59:42.654Z,101900
2017-11-15T15:02:11.231Z,101900
2017-11-15T15:04:39.796Z,101897
2017-11-15T15:07:07.926Z,101895
2017-11-15T15:09:36.063Z,101896
2017-11-15T15:12:04.982Z,101899
2017-11-15T15:14:33.107Z,101893
2017-11-15T15:17:01.227Z,101887
2017-11-15T15:19:29.332Z,101894
2017-11-15T15:21:57.747Z,101904
2017-11-15T15:24:26.631Z,101917
2017-11-15T15:26:54.750Z,101918
2017-11-15T15:29:22.923Z,101915
2017-11-15T15:31:51.371Z,101919
2017-11-15T15:34:19.508Z,101924
2017-11-15T15:36:47.650Z,101921
2017-11-15T15:39:15.755Z,101924
2017-11-15T15:41:43.887Z,101925
2017-11-15T15:44:12.008Z,101917
2017-11-15T15:46:40.135Z,101921
2017-11-15T15:49:08.272Z,101923
2017-11-15T15:51:36.712Z,101919
2017-11-15T15:54:04.851Z,101919
2017-11-15T15:56:34.171Z,101917
2017-11-15T15:59:02.291Z,101926
2017-11-15T16:01:30.427Z,101926
2017-11-15T16:03:58.944Z,101931
2017-11-15T16:06:27.135Z,101917
2017-11-15T16:08:55.987Z,101925
2017-11-15T16:11:24.126Z,101945
2017-11-15T16:13:52.219Z,101929
2017-11-15T16:16:20.438Z,101923
2017-11-15T16:18:48.755Z,101919
2017-11-15T16:21:17.324Z,101921
2017-11-15T16:23:46.191Z,101917
2017-11-15T16:26:14.343Z,101917
2017-11-15T16:28:42.460Z,101920
2017-11-15T16:31:10.567Z,101926
2017-11-15T16:33:38.717Z,101921
2017-11-15T16:36:07.603Z,101930
2017-11-15T16:38:36.460Z,101933
2017-11-15T16:41:04.905Z,101926
2017-11-15T16:43:33.044Z,101926
2017-11-15T16:46:02.341Z,101931
2017-11-15T16:48:31.202Z,101934
2017-11-15T16:50:59.351Z,101933
2017-11-15T16:53:27.466Z,101934
2017-11-15T16:55:55.578Z,101938
2017-11-15T16:58:23.697Z,101939
2017-11-15T17:00:52.207Z,101939
2017-11-15T17:03:21.094Z,101938
2017-11-15T17:05:50.367Z,101944
2017-11-15T17:08:18.491Z,101951
2017-11-15T17:10:46.607Z,101937
2017-11-15T17:13:14.735Z,101950
2017-11-15T17:15:43.302Z,101943
2017-11-15T17:18:12.222Z,101952
2017-11-15T17:20:40.348Z,101948
2017-11-15T17:23:08.492Z,101951
2017-11-15T17:25:36.606Z,101948
2017-11-15T17:28:06.097Z,101950
2017-11-15T17:30:34.272Z,101944
2017-11-15T17:33:02.414Z,101942
2017-11-15T17:35:30.556Z,101943
2017-11-15T17:37:58.671Z,101952
2017-11-15T17:40:26.794Z,101956
2017-11-15T17:42:54.964Z,101952
2017-11-15T17:45:24.078Z,101954
2017-11-15T17:47:52.291Z,101955
2017-11-15T17:50:20.583Z,101942
2017-11-15T17:52:49.174Z,101947
2017-11-15T17:55:17.312Z,101948
2017-11-15T17:57:45.927Z,101947
2017-11-15T18:00:14.079Z,101945
2017-11-15T18:02:42.211Z,101949
2017-11-15T18:05:10.351Z,101948
2017-11-15T18:07:38.981Z,101943
2017-11-15T18:10:07.099Z,101940
2017-11-15T18:12:36.719Z,101938
2017-11-15T18:15:04.908Z,101941
2017-11-15T18:17:33.183Z,101939
2017-11-15T18:20:01.344Z,101942
2017-11-15T18:22:29.474Z,101941
2017-11-15T18:24:57.634Z,101943
2017-11-15T18:27:25.771Z,101947
2017-11-15T18:29:53.926Z,101946
2017-11-15T18:32:22.051Z,101944
2017-11-15T18:34:50.631Z,101945
2017-11-15T18:37:18.791Z,101956
2017-11-15T18:39:46.947Z,101960
2017-11-15T18:42:15.106Z,101959
2017-11-15T18:44:43.248Z,101956
2017-11-15T18:47:11.639Z,101960
2017-11-15T18:49:39.963Z,101957
2017-11-15T18:52:08.134Z,101952
2017-11-15T18:54:37.435Z,101956
2017-11-15T18:57:06.312Z,101965
2017-11-15T18:59:34.435Z,101960
2017-11-15T19:02:02.575Z,101949
2017-11-15T19:04:30.743Z,101966
2017-11-15T19:06:59.227Z,101970
2017-11-15T19:09:28.499Z,101976
2017-11-15T19:11:56.627Z,101970
2017-11-15T19:14:24.763Z,101976
2017-11-15T19:16:54.395Z,101979
2017-11-15T19:19:23.619Z,101970
2017-11-15T19:21:51.799Z,101974
2017-11-15T19:24:19.955Z,101975
2017-11-15T19:26:48.087Z,101982
2017-11-15T19:29:16.231Z,101985
2017-11-15T19:31:44.698Z,101978
2017-11-15T19:34:12.847Z,101976
2017-11-15T19:36:40.991Z,101989
2017-11-15T19:39:09.641Z,101988
2017-11-15T19:41:37.771Z,101987
2017-11-15T19:44:05.979Z,101982
2017-11-15T19:46:34.136Z,101988
2017-11-15T19:49:02.275Z,101986
2017-11-15T19:51:30.723Z,101988
2017-11-15T19:53:58.896Z,101980
2017-11-15T19:56:27.051Z,101974
2017-11-15T19:58:55.215Z,101973
2017-11-15T20:01:23.355Z,101987
2017-11-15T20:03:52.410Z,101983
2017-11-15T20:06:20.531Z,101980
2017-11-15T20:08:49.431Z,101988
2017-11-15T20:11:18.610Z,101980
2017-11-15T20:13:46.746Z,101975
2017-11-15T20:16:15.302Z,101981
2017-11-15T20:18:43.445Z,101980
2017-11-15T20:21:11.574Z,101984
2017-11-15T20:23:39.719Z,101984
2017-11-15T20:26:07.861Z,101979
2017-11-15T20:28:36.031Z,101976
2017-11-15T20:31:04.242Z,101971
2017-11-15T20:33:32.389Z,101972
2017-11-15T20:36:00.516Z,101968
2017-11-15T20:38:29.012Z,101982
2017-11-15T20:40:57.167Z,101973
2017-11-15T20:43:25.317Z,101977
2017-11-15T20:45:53.521Z,101975
2017-11-15T20:48:21.692Z,101978
2017-11-15T20:50:49.836Z,101989
2017-11-15T20:53:17.979Z,101971
2017-11-15T20:55:46.110Z,101983
2017-11-15T20:58:14.256Z,101985
2017-11-15T21:00:42.885Z,101984
2017-11-15T21:03:11.084Z,101982
2017-11-15T21:05:39.227Z,101987
2017-11-15T21:08:07.397Z,101982
2017-11-15T21:10:36.348Z,101978
2017-11-15T21:13:05.240Z,101981
2017-11-15T21:15:34.127Z,101981
2017-11-15T21:18:02.983Z,101981
2017-11-15T21:20:31.120Z,101975
2017-11-15T21:22:59.271Z,101973
2017-11-15T21:25:27.883Z,101976
2017-11-15T21:27:56.031Z,101975
2017-11-15T21:30:24.168Z,101978
2017-11-15T21:32:52.295Z,101976
2017-11-15T21:35:20.399Z,101991
2017-11-15T21:37:48.532Z,101977
2017-11-15T21:40:16.643Z,101973
2017-11-15T21:42:44.801Z,101975
2017-11-15T21:45:12.937Z,101984
2017-11-15T21:47:41.512Z,101983
2017-11-15T21:50:10.370Z,101972
2017-11-15T21:52:38.848Z,101971
2017-11-15T21:55:06.994Z,101971
2017-11-15T21:57:35.127Z,101968
2017-11-15T22:00:03.335Z,101962
2017-11-15T22:02:31.486Z,101968
2017-11-15T22:04:59.636Z,101965
2017-11-15T22:07:27.754Z,101961
2017-11-15T22:09:56.002Z,101955
2017-11-15T22:12:25.294Z,101959
2017-11-15T22:14:53.434Z,101954
2017-11-15T22:17:21.551Z,101950
2017-11-15T22:19:49.678Z,101953
2017-11-15T22:22:17.804Z,101955
2017-11-15T22:24:46.670Z,101950
2017-11-15T22:27:14.815Z,101950
2017-11-15T22:29:42.988Z,101950
2017-11-15T22:32:11.514Z,101943
2017-11-15T22:34:39.646Z,101939
2017-11-15T22:37:07.807Z,101944
2017-11-15T22:39:36.676Z,101942
2017-11-15T22:42:04.810Z,101948
2017-11-15T22:44:32.949Z,101944
2017-11-15T22:47:01.066Z,101943
2017-11-15T22:49:29.951Z,101953
2017-11-15T22:51:59.875Z,101945
2017-11-15T22:54:28.023Z,101949
2017-11-15T22:56:56.156Z,101951
2017-11-15T22:59:24.275Z,101948
2017-11-15T23:01:52.424Z,101948
2017-11-15T23:04:20.775Z,101956
2017-11-15T23:06:48.979Z,101970
2017-11-15T23:09:17.367Z,101945
2017-11-15T23:11:45.499Z,101951
2017-11-15T23:14:15.050Z,101956
2017-11-15T23:16:43.586Z,101948
2017-11-15T23:19:11.731Z,101958
2017-11-15T23:21:39.851Z,101949
2017-11-15T23:24:07.999Z,101956
2017-11-15T23:26:36.137Z,101956
2017-11-15T23:29:04.254Z,101942
2017-11-15T23:31:32.379Z,101921
2017-11-15T23:34:00.548Z,101937
2017-11-15T23:36:28.670Z,101936
2017-11-15T23:38:56.770Z,101939
2017-11-15T23:41:25.202Z,101935
2017-11-15T23:43:53.798Z,101930
2017-11-15T23:46:22.651Z,101932
2017-11-15T23:48:50.787Z,101921
2017-11-15T23:51:18.895Z,101921
2017-11-15T23:53:47.019Z,101914
2017-11-15T23:56:15.143Z,101921
2017-11-15T23:58:43.271Z,101920
